sensor_id;sensor_type;location;lat;lon;timestamp;temperature;humidity
13721;DHT22;6932;51.438;5.470;2022-07-29T00:00:44;24.90;60.20
13721;DHT22;6932;51.438;5.470;2022-07-29T00:03:13;24.90;60.30
13721;DHT22;6932;51.438;5.470;2022-07-29T00:05:40;24.90;60.30
13721;DHT22;6932;51.438;5.470;2022-07-29T00:08:08;24.90;60.40
13721;DHT22;6932;51.438;5.470;2022-07-29T00:10:34;24.90;60.60
13721;DHT22;6932;51.438;5.470;2022-07-29T00:13:01;24.90;60.70
13721;DHT22;6932;51.438;5.470;2022-07-29T00:15:27;24.80;60.80
13721;DHT22;6932;51.438;5.470;2022-07-29T00:17:53;24.80;60.70
13721;DHT22;6932;51.438;5.470;2022-07-29T00:20:19;24.80;60.70
13721;DHT22;6932;51.438;5.470;2022-07-29T00:22:45;24.90;60.90
13721;DHT22;6932;51.438;5.470;2022-07-29T00:25:12;24.90;60.70
13721;DHT22;6932;51.438;5.470;2022-07-29T00:27:38;24.90;60.70
13721;DHT22;6932;51.438;5.470;2022-07-29T00:30:05;24.90;60.70
13721;DHT22;6932;51.438;5.470;2022-07-29T00:32:31;24.90;60.70
13721;DHT22;6932;51.438;5.470;2022-07-29T00:34:58;24.90;60.70
13721;DHT22;6932;51.438;5.470;2022-07-29T00:37:42;24.90;60.60
13721;DHT22;6932;51.438;5.470;2022-07-29T00:40:08;24.90;60.60
13721;DHT22;6932;51.438;5.470;2022-07-29T00:42:44;24.90;60.50
13721;DHT22;6932;51.438;5.470;2022-07-29T00:45:12;24.90;60.50
13721;DHT22;6932;51.438;5.470;2022-07-29T00:47:39;24.90;60.50
13721;DHT22;6932;51.438;5.470;2022-07-29T00:50:07;24.90;60.70
13721;DHT22;6932;51.438;5.470;2022-07-29T00:52:36;24.90;61.00
13721;DHT22;6932;51.438;5.470;2022-07-29T00:55:04;24.90;63.20
13721;DHT22;6932;51.438;5.470;2022-07-29T00:57:31;24.80;64.00
13721;DHT22;6932;51.438;5.470;2022-07-29T00:59:58;24.80;64.50
13721;DHT22;6932;51.438;5.470;2022-07-29T01:02:24;24.70;64.90
13721;DHT22;6932;51.438;5.470;2022-07-29T01:04:50;24.70;65.70
13721;DHT22;6932;51.438;5.470;2022-07-29T01:07:17;24.60;65.60
13721;DHT22;6932;51.438;5.470;2022-07-29T01:09:44;24.50;65.90
13721;DHT22;6932;51.438;5.470;2022-07-29T01:12:12;24.40;66.80
13721;DHT22;6932;51.438;5.470;2022-07-29T01:14:40;24.30;67.70
13721;DHT22;6932;51.438;5.470;2022-07-29T01:17:14;24.20;68.50
13721;DHT22;6932;51.438;5.470;2022-07-29T01:25:54;23.90;71.30
13721;DHT22;6932;51.438;5.470;2022-07-29T01:31:55;23.50;73.00
13721;DHT22;6932;51.438;5.470;2022-07-29T01:34:32;23.40;74.30
13721;DHT22;6932;51.438;5.470;2022-07-29T01:37:18;23.30;75.80
13721;DHT22;6932;51.438;5.470;2022-07-29T01:39:48;23.20;76.70
13721;DHT22;6932;51.438;5.470;2022-07-29T01:42:27;23.10;77.80
13721;DHT22;6932;51.438;5.470;2022-07-29T01:45:08;23.10;78.50
13721;DHT22;6932;51.438;5.470;2022-07-29T01:50:40;23.10;78.20
13721;DHT22;6932;51.438;5.470;2022-07-29T01:53:16;23.00;77.60
13721;DHT22;6932;51.438;5.470;2022-07-29T01:55:51;23.00;78.00
13721;DHT22;6932;51.438;5.470;2022-07-29T01:58:20;23.00;78.10
13721;DHT22;6932;51.438;5.470;2022-07-29T02:00:49;23.00;78.30
13721;DHT22;6932;51.438;5.470;2022-07-29T02:03:17;23.00;78.30
13721;DHT22;6932;51.438;5.470;2022-07-29T02:05:45;23.00;78.80
13721;DHT22;6932;51.438;5.470;2022-07-29T02:08:13;23.00;79.60
13721;DHT22;6932;51.438;5.470;2022-07-29T02:10:42;23.00;80.30
13721;DHT22;6932;51.438;5.470;2022-07-29T02:13:10;23.10;80.50
13721;DHT22;6932;51.438;5.470;2022-07-29T02:15:37;23.20;80.60
13721;DHT22;6932;51.438;5.470;2022-07-29T02:18:11;23.20;80.70
13721;DHT22;6932;51.438;5.470;2022-07-29T02:20:45;23.20;80.70
13721;DHT22;6932;51.438;5.470;2022-07-29T02:23:17;23.30;81.10
13721;DHT22;6932;51.438;5.470;2022-07-29T02:25:49;23.30;80.80
13721;DHT22;6932;51.438;5.470;2022-07-29T02:28:19;23.30;80.90
13721;DHT22;6932;51.438;5.470;2022-07-29T02:30:47;23.30;81.20
13721;DHT22;6932;51.438;5.470;2022-07-29T02:33:17;23.30;81.60
13721;DHT22;6932;51.438;5.470;2022-07-29T02:35:46;23.30;81.70
13721;DHT22;6932;51.438;5.470;2022-07-29T02:38:15;23.30;81.90
13721;DHT22;6932;51.438;5.470;2022-07-29T02:41:08;23.30;81.50
13721;DHT22;6932;51.438;5.470;2022-07-29T02:43:37;23.30;81.60
13721;DHT22;6932;51.438;5.470;2022-07-29T02:46:05;23.30;81.70
13721;DHT22;6932;51.438;5.470;2022-07-29T02:48:37;23.20;81.80
13721;DHT22;6932;51.438;5.470;2022-07-29T02:51:33;23.20;82.10
13721;DHT22;6932;51.438;5.470;2022-07-29T02:54:09;23.20;82.20
13721;DHT22;6932;51.438;5.470;2022-07-29T02:56:41;23.20;81.80
13721;DHT22;6932;51.438;5.470;2022-07-29T02:59:11;23.20;81.40
13721;DHT22;6932;51.438;5.470;2022-07-29T03:01:42;23.20;82.00
13721;DHT22;6932;51.438;5.470;2022-07-29T03:04:10;23.10;82.00
13721;DHT22;6932;51.438;5.470;2022-07-29T03:06:38;23.10;81.90
13721;DHT22;6932;51.438;5.470;2022-07-29T03:09:07;23.10;81.70
13721;DHT22;6932;51.438;5.470;2022-07-29T03:11:34;23.10;81.80
13721;DHT22;6932;51.438;5.470;2022-07-29T03:14:02;23.10;81.50
13721;DHT22;6932;51.438;5.470;2022-07-29T03:16:30;23.00;81.40
13721;DHT22;6932;51.438;5.470;2022-07-29T03:18:56;23.00;81.50
13721;DHT22;6932;51.438;5.470;2022-07-29T03:21:21;23.00;81.70
13721;DHT22;6932;51.438;5.470;2022-07-29T03:23:47;23.00;81.80
13721;DHT22;6932;51.438;5.470;2022-07-29T03:26:13;23.00;81.50
13721;DHT22;6932;51.438;5.470;2022-07-29T03:28:39;22.90;80.70
13721;DHT22;6932;51.438;5.470;2022-07-29T03:31:05;22.90;80.30
13721;DHT22;6932;51.438;5.470;2022-07-29T03:33:30;22.90;80.20
13721;DHT22;6932;51.438;5.470;2022-07-29T03:35:56;22.80;80.60
13721;DHT22;6932;51.438;5.470;2022-07-29T03:38:26;22.70;80.90
13721;DHT22;6932;51.438;5.470;2022-07-29T03:40:57;22.60;81.80
13721;DHT22;6932;51.438;5.470;2022-07-29T03:43:32;22.60;82.80
13721;DHT22;6932;51.438;5.470;2022-07-29T03:46:02;22.60;82.30
13721;DHT22;6932;51.438;5.470;2022-07-29T03:48:31;22.60;82.50
13721;DHT22;6932;51.438;5.470;2022-07-29T03:51:00;22.60;82.60
13721;DHT22;6932;51.438;5.470;2022-07-29T03:53:27;22.60;82.60
13721;DHT22;6932;51.438;5.470;2022-07-29T03:55:55;22.60;82.80
13721;DHT22;6932;51.438;5.470;2022-07-29T03:58:26;22.60;82.90
13721;DHT22;6932;51.438;5.470;2022-07-29T04:00:54;22.60;82.80
13721;DHT22;6932;51.438;5.470;2022-07-29T04:03:21;22.60;82.50
13721;DHT22;6932;51.438;5.470;2022-07-29T04:06:02;22.60;82.50
13721;DHT22;6932;51.438;5.470;2022-07-29T04:08:32;22.60;82.80
13721;DHT22;6932;51.438;5.470;2022-07-29T04:10:59;22.60;82.70
13721;DHT22;6932;51.438;5.470;2022-07-29T04:13:25;22.60;82.80
13721;DHT22;6932;51.438;5.470;2022-07-29T04:15:51;22.70;82.80
13721;DHT22;6932;51.438;5.470;2022-07-29T04:18:17;22.60;82.30
13721;DHT22;6932;51.438;5.470;2022-07-29T04:20:43;22.60;82.40
13721;DHT22;6932;51.438;5.470;2022-07-29T04:23:08;22.60;82.40
13721;DHT22;6932;51.438;5.470;2022-07-29T04:25:37;22.60;82.20
13721;DHT22;6932;51.438;5.470;2022-07-29T04:28:05;22.60;81.90
13721;DHT22;6932;51.438;5.470;2022-07-29T04:30:33;22.60;82.60
13721;DHT22;6932;51.438;5.470;2022-07-29T04:33:05;22.50;82.90
13721;DHT22;6932;51.438;5.470;2022-07-29T04:35:36;22.50;83.00
13721;DHT22;6932;51.438;5.470;2022-07-29T04:38:03;22.50;82.90
13721;DHT22;6932;51.438;5.470;2022-07-29T04:40:30;22.50;82.60
13721;DHT22;6932;51.438;5.470;2022-07-29T04:42:58;22.50;82.70
13721;DHT22;6932;51.438;5.470;2022-07-29T04:45:26;22.50;82.20
13721;DHT22;6932;51.438;5.470;2022-07-29T04:47:52;22.40;81.80
13721;DHT22;6932;51.438;5.470;2022-07-29T04:50:18;22.40;82.00
13721;DHT22;6932;51.438;5.470;2022-07-29T04:52:43;22.40;82.20
13721;DHT22;6932;51.438;5.470;2022-07-29T04:55:09;22.40;82.40
13721;DHT22;6932;51.438;5.470;2022-07-29T04:57:35;22.30;82.70
13721;DHT22;6932;51.438;5.470;2022-07-29T05:00:01;22.30;82.90
13721;DHT22;6932;51.438;5.470;2022-07-29T05:02:27;22.30;83.80
13721;DHT22;6932;51.438;5.470;2022-07-29T05:04:53;22.30;84.20
13721;DHT22;6932;51.438;5.470;2022-07-29T05:07:19;22.20;84.00
13721;DHT22;6932;51.438;5.470;2022-07-29T05:09:45;22.30;84.00
13721;DHT22;6932;51.438;5.470;2022-07-29T05:12:10;22.30;83.60
13721;DHT22;6932;51.438;5.470;2022-07-29T05:14:37;22.30;84.20
13721;DHT22;6932;51.438;5.470;2022-07-29T05:17:02;22.30;84.10
13721;DHT22;6932;51.438;5.470;2022-07-29T05:19:28;22.30;84.20
13721;DHT22;6932;51.438;5.470;2022-07-29T05:21:54;22.30;84.30
13721;DHT22;6932;51.438;5.470;2022-07-29T05:24:20;22.30;84.10
13721;DHT22;6932;51.438;5.470;2022-07-29T05:26:45;22.40;84.10
13721;DHT22;6932;51.438;5.470;2022-07-29T05:29:11;22.40;84.10
13721;DHT22;6932;51.438;5.470;2022-07-29T05:31:37;22.40;84.10
13721;DHT22;6932;51.438;5.470;2022-07-29T05:34:02;22.40;84.00
13721;DHT22;6932;51.438;5.470;2022-07-29T05:36:28;22.40;84.10
13721;DHT22;6932;51.438;5.470;2022-07-29T05:38:54;22.40;84.00
13721;DHT22;6932;51.438;5.470;2022-07-29T05:41:20;22.40;83.60
13721;DHT22;6932;51.438;5.470;2022-07-29T05:43:46;22.40;83.40
13721;DHT22;6932;51.438;5.470;2022-07-29T05:46:12;22.40;83.20
13721;DHT22;6932;51.438;5.470;2022-07-29T05:48:39;22.40;83.40
13721;DHT22;6932;51.438;5.470;2022-07-29T05:51:05;22.30;83.50
13721;DHT22;6932;51.438;5.470;2022-07-29T05:53:31;22.30;84.20
13721;DHT22;6932;51.438;5.470;2022-07-29T05:55:56;22.20;84.20
13721;DHT22;6932;51.438;5.470;2022-07-29T05:58:22;22.20;83.80
13721;DHT22;6932;51.438;5.470;2022-07-29T06:00:48;22.20;83.90
13721;DHT22;6932;51.438;5.470;2022-07-29T06:03:14;22.20;84.00
13721;DHT22;6932;51.438;5.470;2022-07-29T06:05:40;22.10;84.30
13721;DHT22;6932;51.438;5.470;2022-07-29T06:08:06;22.20;84.40
13721;DHT22;6932;51.438;5.470;2022-07-29T06:10:34;22.10;84.40
13721;DHT22;6932;51.438;5.470;2022-07-29T06:13:00;22.10;84.60
13721;DHT22;6932;51.438;5.470;2022-07-29T06:15:26;22.10;85.30
13721;DHT22;6932;51.438;5.470;2022-07-29T06:17:52;22.10;84.70
13721;DHT22;6932;51.438;5.470;2022-07-29T06:20:18;22.10;84.50
13721;DHT22;6932;51.438;5.470;2022-07-29T06:22:44;22.10;84.60
13721;DHT22;6932;51.438;5.470;2022-07-29T06:25:10;22.10;84.70
13721;DHT22;6932;51.438;5.470;2022-07-29T06:27:37;22.10;84.70
13721;DHT22;6932;51.438;5.470;2022-07-29T06:30:03;22.10;84.80
13721;DHT22;6932;51.438;5.470;2022-07-29T06:32:32;22.10;84.60
13721;DHT22;6932;51.438;5.470;2022-07-29T06:34:58;22.10;85.00
13721;DHT22;6932;51.438;5.470;2022-07-29T06:37:24;22.10;84.90
13721;DHT22;6932;51.438;5.470;2022-07-29T06:39:50;22.20;85.00
13721;DHT22;6932;51.438;5.470;2022-07-29T06:42:35;22.20;84.70
13721;DHT22;6932;51.438;5.470;2022-07-29T06:45:01;22.20;84.60
13721;DHT22;6932;51.438;5.470;2022-07-29T06:47:27;22.30;84.70
13721;DHT22;6932;51.438;5.470;2022-07-29T06:49:53;22.20;84.20
13721;DHT22;6932;51.438;5.470;2022-07-29T06:52:18;22.30;84.30
13721;DHT22;6932;51.438;5.470;2022-07-29T06:54:44;22.40;84.50
13721;DHT22;6932;51.438;5.470;2022-07-29T06:57:13;22.30;84.40
13721;DHT22;6932;51.438;5.470;2022-07-29T06:59:39;22.30;84.20
13721;DHT22;6932;51.438;5.470;2022-07-29T07:02:05;22.30;84.20
13721;DHT22;6932;51.438;5.470;2022-07-29T07:04:31;22.30;84.00
13721;DHT22;6932;51.438;5.470;2022-07-29T07:06:57;22.30;84.20
13721;DHT22;6932;51.438;5.470;2022-07-29T07:09:24;22.30;84.10
13721;DHT22;6932;51.438;5.470;2022-07-29T07:11:50;22.40;84.40
13721;DHT22;6932;51.438;5.470;2022-07-29T07:14:15;22.40;84.60
13721;DHT22;6932;51.438;5.470;2022-07-29T07:16:41;22.40;84.30
13721;DHT22;6932;51.438;5.470;2022-07-29T07:19:07;22.50;84.30
13721;DHT22;6932;51.438;5.470;2022-07-29T07:21:33;22.50;84.10
13721;DHT22;6932;51.438;5.470;2022-07-29T07:23:59;22.60;84.80
13721;DHT22;6932;51.438;5.470;2022-07-29T07:26:25;22.60;84.70
13721;DHT22;6932;51.438;5.470;2022-07-29T07:28:52;22.70;85.50
13721;DHT22;6932;51.438;5.470;2022-07-29T07:31:18;22.80;85.70
13721;DHT22;6932;51.438;5.470;2022-07-29T07:33:44;23.00;85.90
13721;DHT22;6932;51.438;5.470;2022-07-29T07:36:09;23.10;85.50
13721;DHT22;6932;51.438;5.470;2022-07-29T07:38:35;23.30;85.30
13721;DHT22;6932;51.438;5.470;2022-07-29T07:41:01;23.50;84.60
13721;DHT22;6932;51.438;5.470;2022-07-29T07:43:27;23.70;84.10
13721;DHT22;6932;51.438;5.470;2022-07-29T07:45:53;23.90;83.20
13721;DHT22;6932;51.438;5.470;2022-07-29T07:48:18;24.20;82.10
13721;DHT22;6932;51.438;5.470;2022-07-29T07:50:44;24.30;81.40
13721;DHT22;6932;51.438;5.470;2022-07-29T07:53:10;24.60;80.10
13721;DHT22;6932;51.438;5.470;2022-07-29T07:55:42;24.80;79.10
13721;DHT22;6932;51.438;5.470;2022-07-29T07:58:09;24.90;78.90
13721;DHT22;6932;51.438;5.470;2022-07-29T08:00:35;25.10;78.80
13721;DHT22;6932;51.438;5.470;2022-07-29T08:03:01;25.30;78.10
13721;DHT22;6932;51.438;5.470;2022-07-29T08:05:27;25.50;76.50
13721;DHT22;6932;51.438;5.470;2022-07-29T08:07:53;25.60;75.40
13721;DHT22;6932;51.438;5.470;2022-07-29T08:10:19;25.70;75.50
13721;DHT22;6932;51.438;5.470;2022-07-29T08:13:06;25.90;75.00
13721;DHT22;6932;51.438;5.470;2022-07-29T08:15:33;26.00;74.40
13721;DHT22;6932;51.438;5.470;2022-07-29T08:17:59;26.10;73.40
13721;DHT22;6932;51.438;5.470;2022-07-29T08:20:26;26.20;72.60
13721;DHT22;6932;51.438;5.470;2022-07-29T08:22:52;26.20;72.20
13721;DHT22;6932;51.438;5.470;2022-07-29T08:25:19;26.30;72.40
13721;DHT22;6932;51.438;5.470;2022-07-29T08:27:46;26.30;72.80
13721;DHT22;6932;51.438;5.470;2022-07-29T08:30:13;26.40;72.30
13721;DHT22;6932;51.438;5.470;2022-07-29T08:32:39;26.50;72.10
13721;DHT22;6932;51.438;5.470;2022-07-29T08:35:05;26.70;72.50
13721;DHT22;6932;51.438;5.470;2022-07-29T08:37:31;26.80;72.10
13721;DHT22;6932;51.438;5.470;2022-07-29T08:39:56;27.00;71.70
13721;DHT22;6932;51.438;5.470;2022-07-29T08:42:22;27.10;71.00
13721;DHT22;6932;51.438;5.470;2022-07-29T08:44:48;27.20;71.00
13721;DHT22;6932;51.438;5.470;2022-07-29T08:47:16;27.40;69.50
13721;DHT22;6932;51.438;5.470;2022-07-29T08:49:42;27.50;68.70
13721;DHT22;6932;51.438;5.470;2022-07-29T08:52:10;27.70;68.90
13721;DHT22;6932;51.438;5.470;2022-07-29T08:54:43;27.80;69.00
13721;DHT22;6932;51.438;5.470;2022-07-29T08:57:10;27.90;68.80
13721;DHT22;6932;51.438;5.470;2022-07-29T08:59:41;28.00;69.10
13721;DHT22;6932;51.438;5.470;2022-07-29T09:02:19;28.10;69.30
13721;DHT22;6932;51.438;5.470;2022-07-29T09:04:47;28.20;68.70
13721;DHT22;6932;51.438;5.470;2022-07-29T09:07:17;28.30;68.20
13721;DHT22;6932;51.438;5.470;2022-07-29T09:09:44;28.40;68.00
13721;DHT22;6932;51.438;5.470;2022-07-29T09:12:10;28.50;67.50
13721;DHT22;6932;51.438;5.470;2022-07-29T09:14:40;28.70;67.30
13721;DHT22;6932;51.438;5.470;2022-07-29T09:17:07;28.80;67.10
13721;DHT22;6932;51.438;5.470;2022-07-29T09:19:35;28.90;67.40
13721;DHT22;6932;51.438;5.470;2022-07-29T09:22:06;29.00;67.50
13721;DHT22;6932;51.438;5.470;2022-07-29T09:24:44;29.10;67.40
13721;DHT22;6932;51.438;5.470;2022-07-29T09:29:46;29.40;66.50
13721;DHT22;6932;51.438;5.470;2022-07-29T09:32:21;29.50;65.50
13721;DHT22;6932;51.438;5.470;2022-07-29T09:34:47;29.60;65.40
13721;DHT22;6932;51.438;5.470;2022-07-29T09:37:28;29.70;64.40
13721;DHT22;6932;51.438;5.470;2022-07-29T09:39:54;29.70;64.30
13721;DHT22;6932;51.438;5.470;2022-07-29T09:42:30;29.80;64.00
13721;DHT22;6932;51.438;5.470;2022-07-29T09:44:57;29.90;63.30
13721;DHT22;6932;51.438;5.470;2022-07-29T09:47:46;30.00;63.10
13721;DHT22;6932;51.438;5.470;2022-07-29T09:50:15;30.00;62.60
13721;DHT22;6932;51.438;5.470;2022-07-29T09:52:52;30.10;62.10
13721;DHT22;6932;51.438;5.470;2022-07-29T09:55:19;30.10;62.00
13721;DHT22;6932;51.438;5.470;2022-07-29T09:57:46;30.20;61.70
13721;DHT22;6932;51.438;5.470;2022-07-29T10:00:13;30.20;61.30
13721;DHT22;6932;51.438;5.470;2022-07-29T10:02:45;30.20;61.00
13721;DHT22;6932;51.438;5.470;2022-07-29T10:05:24;30.10;61.30
13721;DHT22;6932;51.438;5.470;2022-07-29T10:07:53;30.20;61.30
13721;DHT22;6932;51.438;5.470;2022-07-29T10:10:31;30.10;61.80
13721;DHT22;6932;51.438;5.470;2022-07-29T10:13:07;30.20;61.70
13721;DHT22;6932;51.438;5.470;2022-07-29T10:15:44;30.20;62.40
13721;DHT22;6932;51.438;5.470;2022-07-29T10:18:12;30.30;61.50
13721;DHT22;6932;51.438;5.470;2022-07-29T10:20:39;30.30;62.10
13721;DHT22;6932;51.438;5.470;2022-07-29T10:23:05;30.40;62.00
13721;DHT22;6932;51.438;5.470;2022-07-29T10:25:31;30.50;61.00
13721;DHT22;6932;51.438;5.470;2022-07-29T10:27:57;30.50;61.10
13721;DHT22;6932;51.438;5.470;2022-07-29T10:30:24;30.60;60.90
13721;DHT22;6932;51.438;5.470;2022-07-29T10:38:55;30.80;59.30
13721;DHT22;6932;51.438;5.470;2022-07-29T10:41:39;30.80;59.30
13721;DHT22;6932;51.438;5.470;2022-07-29T10:44:22;30.80;59.90
13721;DHT22;6932;51.438;5.470;2022-07-29T10:46:51;30.80;59.20
13721;DHT22;6932;51.438;5.470;2022-07-29T10:49:21;30.80;58.80
13721;DHT22;6932;51.438;5.470;2022-07-29T10:54:16;30.90;58.80
13721;DHT22;6932;51.438;5.470;2022-07-29T10:56:43;30.80;59.00
13721;DHT22;6932;51.438;5.470;2022-07-29T11:01:47;30.90;58.10
13721;DHT22;6932;51.438;5.470;2022-07-29T11:04:15;30.90;58.40
13721;DHT22;6932;51.438;5.470;2022-07-29T11:07:06;30.90;58.50
13721;DHT22;6932;51.438;5.470;2022-07-29T11:09:33;30.90;58.70
13721;DHT22;6932;51.438;5.470;2022-07-29T11:11:59;31.00;59.30
13721;DHT22;6932;51.438;5.470;2022-07-29T11:15:00;30.90;59.60
13721;DHT22;6932;51.438;5.470;2022-07-29T11:17:28;31.00;59.50
13721;DHT22;6932;51.438;5.470;2022-07-29T11:23:27;31.00;59.00
13721;DHT22;6932;51.438;5.470;2022-07-29T11:26:14;31.00;58.80
13721;DHT22;6932;51.438;5.470;2022-07-29T11:31:44;31.10;58.70
13721;DHT22;6932;51.438;5.470;2022-07-29T11:34:26;31.10;58.60
13721;DHT22;6932;51.438;5.470;2022-07-29T11:45:17;31.20;57.80
13721;DHT22;6932;51.438;5.470;2022-07-29T11:47:52;31.20;58.20
13721;DHT22;6932;51.438;5.470;2022-07-29T11:50:29;31.30;58.20
13721;DHT22;6932;51.438;5.470;2022-07-29T11:52:57;31.30;58.10
13721;DHT22;6932;51.438;5.470;2022-07-29T11:55:25;31.30;57.70
13721;DHT22;6932;51.438;5.470;2022-07-29T11:57:56;31.30;57.50
13721;DHT22;6932;51.438;5.470;2022-07-29T12:03:02;31.30;57.30
13721;DHT22;6932;51.438;5.470;2022-07-29T12:08:07;31.30;57.60
13721;DHT22;6932;51.438;5.470;2022-07-29T12:10:36;31.30;57.50
13721;DHT22;6932;51.438;5.470;2022-07-29T12:13:02;31.30;57.70
13721;DHT22;6932;51.438;5.470;2022-07-29T12:15:28;31.30;58.00
13721;DHT22;6932;51.438;5.470;2022-07-29T12:17:55;31.30;56.10
13721;DHT22;6932;51.438;5.470;2022-07-29T12:20:26;31.30;55.80
13721;DHT22;6932;51.438;5.470;2022-07-29T12:22:54;31.30;56.00
13721;DHT22;6932;51.438;5.470;2022-07-29T12:25:23;31.30;55.60
13721;DHT22;6932;51.438;5.470;2022-07-29T12:28:00;31.30;55.40
13721;DHT22;6932;51.438;5.470;2022-07-29T12:30:38;31.30;55.70
13721;DHT22;6932;51.438;5.470;2022-07-29T12:33:27;31.30;55.40
13721;DHT22;6932;51.438;5.470;2022-07-29T12:35:57;31.20;55.00
13721;DHT22;6932;51.438;5.470;2022-07-29T12:38:25;31.20;54.70
13721;DHT22;6932;51.438;5.470;2022-07-29T12:40:53;31.20;54.90
13721;DHT22;6932;51.438;5.470;2022-07-29T12:43:21;31.20;55.00
13721;DHT22;6932;51.438;5.470;2022-07-29T12:45:52;31.30;54.70
13721;DHT22;6932;51.438;5.470;2022-07-29T12:48:36;31.30;54.50
13721;DHT22;6932;51.438;5.470;2022-07-29T12:51:04;31.30;55.00
13721;DHT22;6932;51.438;5.470;2022-07-29T12:53:32;31.30;55.20
13721;DHT22;6932;51.438;5.470;2022-07-29T12:55:59;31.30;55.00
13721;DHT22;6932;51.438;5.470;2022-07-29T13:01:09;31.30;55.00
13721;DHT22;6932;51.438;5.470;2022-07-29T13:09:21;31.50;54.80
13721;DHT22;6932;51.438;5.470;2022-07-29T13:11:52;31.50;54.90
13721;DHT22;6932;51.438;5.470;2022-07-29T13:14:31;31.60;54.90
13721;DHT22;6932;51.438;5.470;2022-07-29T13:17:42;31.60;54.60
13721;DHT22;6932;51.438;5.470;2022-07-29T13:20:04;31.70;54.60
13721;DHT22;6932;51.438;5.470;2022-07-29T13:22:31;31.70;54.60
13721;DHT22;6932;51.438;5.470;2022-07-29T13:24:59;31.70;54.10
13721;DHT22;6932;51.438;5.470;2022-07-29T13:27:30;31.70;54.00
13721;DHT22;6932;51.438;5.470;2022-07-29T13:29:59;31.70;53.80
13721;DHT22;6932;51.438;5.470;2022-07-29T13:32:27;31.70;53.90
13721;DHT22;6932;51.438;5.470;2022-07-29T13:34:56;31.70;53.70
13721;DHT22;6932;51.438;5.470;2022-07-29T13:37:22;31.70;54.00
13721;DHT22;6932;51.438;5.470;2022-07-29T13:39:48;31.70;54.40
13721;DHT22;6932;51.438;5.470;2022-07-29T13:42:14;31.70;54.00
13721;DHT22;6932;51.438;5.470;2022-07-29T13:44:40;31.70;53.80
13721;DHT22;6932;51.438;5.470;2022-07-29T13:47:07;31.70;53.50
13721;DHT22;6932;51.438;5.470;2022-07-29T13:49:34;31.70;53.50
13721;DHT22;6932;51.438;5.470;2022-07-29T13:52:00;31.60;53.90
13721;DHT22;6932;51.438;5.470;2022-07-29T13:54:26;31.50;53.90
13721;DHT22;6932;51.438;5.470;2022-07-29T13:56:52;31.50;54.10
13721;DHT22;6932;51.438;5.470;2022-07-29T13:59:18;31.50;55.10
13721;DHT22;6932;51.438;5.470;2022-07-29T14:01:44;31.50;54.80
13721;DHT22;6932;51.438;5.470;2022-07-29T14:04:11;31.50;54.50
13721;DHT22;6932;51.438;5.470;2022-07-29T14:06:37;31.50;54.00
13721;DHT22;6932;51.438;5.470;2022-07-29T14:09:04;31.50;54.10
13721;DHT22;6932;51.438;5.470;2022-07-29T14:11:39;31.50;54.20
13721;DHT22;6932;51.438;5.470;2022-07-29T14:14:05;31.50;54.10
13721;DHT22;6932;51.438;5.470;2022-07-29T14:16:30;31.60;54.00
13721;DHT22;6932;51.438;5.470;2022-07-29T14:18:56;31.50;54.00
13721;DHT22;6932;51.438;5.470;2022-07-29T14:21:22;31.50;54.20
13721;DHT22;6932;51.438;5.470;2022-07-29T14:23:48;31.50;54.30
13721;DHT22;6932;51.438;5.470;2022-07-29T14:26:14;31.50;54.10
13721;DHT22;6932;51.438;5.470;2022-07-29T14:28:40;31.50;54.30
13721;DHT22;6932;51.438;5.470;2022-07-29T14:31:05;31.50;54.30
13721;DHT22;6932;51.438;5.470;2022-07-29T14:33:31;31.50;54.30
13721;DHT22;6932;51.438;5.470;2022-07-29T14:35:57;31.50;54.10
13721;DHT22;6932;51.438;5.470;2022-07-29T14:38:22;31.50;54.20
13721;DHT22;6932;51.438;5.470;2022-07-29T14:40:49;31.40;54.00
13721;DHT22;6932;51.438;5.470;2022-07-29T14:43:14;31.40;53.60
13721;DHT22;6932;51.438;5.470;2022-07-29T14:45:40;31.40;53.20
13721;DHT22;6932;51.438;5.470;2022-07-29T14:48:06;31.30;53.20
13721;DHT22;6932;51.438;5.470;2022-07-29T14:50:32;31.30;53.30
13721;DHT22;6932;51.438;5.470;2022-07-29T14:53:01;31.20;53.40
13721;DHT22;6932;51.438;5.470;2022-07-29T14:55:27;31.20;53.00
13721;DHT22;6932;51.438;5.470;2022-07-29T14:57:52;31.20;52.90
13721;DHT22;6932;51.438;5.470;2022-07-29T15:00:19;31.20;52.50
13721;DHT22;6932;51.438;5.470;2022-07-29T15:02:46;31.20;52.60
13721;DHT22;6932;51.438;5.470;2022-07-29T15:05:12;31.20;52.40
13721;DHT22;6932;51.438;5.470;2022-07-29T15:07:38;31.20;52.20
13721;DHT22;6932;51.438;5.470;2022-07-29T15:10:04;31.20;52.40
13721;DHT22;6932;51.438;5.470;2022-07-29T15:12:31;31.20;52.40
13721;DHT22;6932;51.438;5.470;2022-07-29T15:14:57;31.30;52.60
13721;DHT22;6932;51.438;5.470;2022-07-29T15:17:23;31.20;52.50
13721;DHT22;6932;51.438;5.470;2022-07-29T15:19:49;31.20;52.50
13721;DHT22;6932;51.438;5.470;2022-07-29T15:22:15;31.20;52.40
13721;DHT22;6932;51.438;5.470;2022-07-29T15:24:41;31.20;52.70
13721;DHT22;6932;51.438;5.470;2022-07-29T15:27:07;31.20;52.70
13721;DHT22;6932;51.438;5.470;2022-07-29T15:29:40;31.20;52.70
13721;DHT22;6932;51.438;5.470;2022-07-29T15:32:07;31.30;52.50
13721;DHT22;6932;51.438;5.470;2022-07-29T15:34:33;31.30;52.50
13721;DHT22;6932;51.438;5.470;2022-07-29T15:36:59;31.20;52.30
13721;DHT22;6932;51.438;5.470;2022-07-29T15:39:25;31.20;52.30
13721;DHT22;6932;51.438;5.470;2022-07-29T15:41:51;31.20;52.40
13721;DHT22;6932;51.438;5.470;2022-07-29T15:44:18;31.10;52.30
13721;DHT22;6932;51.438;5.470;2022-07-29T15:46:44;31.10;52.50
13721;DHT22;6932;51.438;5.470;2022-07-29T15:49:32;31.10;52.40
13721;DHT22;6932;51.438;5.470;2022-07-29T15:52:00;31.10;52.70
13721;DHT22;6932;51.438;5.470;2022-07-29T15:54:29;31.10;52.00
13721;DHT22;6932;51.438;5.470;2022-07-29T15:56:55;31.00;51.20
13721;DHT22;6932;51.438;5.470;2022-07-29T15:59:21;30.90;51.30
13721;DHT22;6932;51.438;5.470;2022-07-29T16:01:48;30.70;51.50
13721;DHT22;6932;51.438;5.470;2022-07-29T16:04:14;30.60;52.20
13721;DHT22;6932;51.438;5.470;2022-07-29T16:06:40;30.50;52.40
13721;DHT22;6932;51.438;5.470;2022-07-29T16:09:06;30.40;52.00
13721;DHT22;6932;51.438;5.470;2022-07-29T16:11:32;30.30;52.40
13721;DHT22;6932;51.438;5.470;2022-07-29T16:13:58;30.20;52.10
13721;DHT22;6932;51.438;5.470;2022-07-29T16:16:24;30.10;52.20
13721;DHT22;6932;51.438;5.470;2022-07-29T16:18:50;30.10;52.60
13721;DHT22;6932;51.438;5.470;2022-07-29T16:21:15;30.00;52.40
13721;DHT22;6932;51.438;5.470;2022-07-29T16:23:42;29.90;52.50
13721;DHT22;6932;51.438;5.470;2022-07-29T16:26:07;29.90;52.20
13721;DHT22;6932;51.438;5.470;2022-07-29T16:28:33;29.80;52.20
13721;DHT22;6932;51.438;5.470;2022-07-29T16:30:59;29.80;52.30
13721;DHT22;6932;51.438;5.470;2022-07-29T16:33:25;29.80;52.40
13721;DHT22;6932;51.438;5.470;2022-07-29T16:35:51;29.70;52.50
13721;DHT22;6932;51.438;5.470;2022-07-29T16:38:17;29.70;52.50
13721;DHT22;6932;51.438;5.470;2022-07-29T16:40:43;29.60;52.20
13721;DHT22;6932;51.438;5.470;2022-07-29T16:43:09;29.60;52.40
13721;DHT22;6932;51.438;5.470;2022-07-29T16:45:35;29.60;52.50
13721;DHT22;6932;51.438;5.470;2022-07-29T16:48:01;29.60;52.50